createdAt,value
2022-09-18T00:00:28.110Z,13.75
2022-09-18T00:02:58.425Z,13.74
2022-09-18T00:05:29.039Z,13.74
2022-09-18T00:07:58.722Z,13.73
2022-09-18T00:10:30.146Z,13.69
2022-09-18T00:13:01.815Z,13.66
2022-09-18T00:15:31.075Z,13.63
2022-09-18T00:18:00.416Z,13.58
2022-09-18T00:20:30.158Z,13.58
2022-09-18T00:22:59.542Z,13.59
2022-09-18T00:25:31.953Z,13.60
2022-09-18T00:28:01.911Z,13.61
2022-09-18T00:30:33.297Z,13.61
2022-09-18T00:33:04.246Z,13.62
2022-09-18T00:35:33.524Z,13.63
2022-09-18T00:38:03.479Z,13.67
2022-09-18T00:40:32.967Z,13.66
2022-09-18T00:43:22.122Z,13.64
2022-09-18T00:46:12.129Z,13.64
2022-09-18T00:49:05.776Z,13.67
2022-09-18T00:51:35.758Z,13.67
2022-09-18T00:54:18.523Z,13.67
2022-09-18T00:56:47.776Z,13.62
2022-09-18T00:59:22.314Z,13.60
2022-09-18T01:01:54.148Z,13.61
2022-09-18T01:04:24.969Z,13.61
2022-09-18T01:07:28.946Z,13.59
2022-09-18T01:10:19.253Z,13.56
2022-09-18T01:12:56.873Z,13.55
2022-09-18T01:15:38.755Z,13.55
2022-09-18T01:18:59.326Z,13.54
2022-09-18T01:21:40.587Z,13.55
2022-09-18T01:24:18.721Z,13.59
2022-09-18T01:27:00.875Z,13.60
2022-09-18T01:29:47.938Z,13.61
2022-09-18T01:32:28.311Z,13.62
2022-09-18T01:35:40.598Z,13.60
2022-09-18T01:37:54.369Z,13.61
2022-09-18T01:40:52.024Z,13.61
2022-09-18T01:43:21.417Z,13.61
2022-09-18T01:45:53.639Z,13.57
2022-09-18T01:48:34.723Z,13.58
2022-09-18T01:51:11.522Z,13.59
2022-09-18T01:53:44.519Z,13.62
2022-09-18T01:56:26.411Z,13.61
2022-09-18T01:58:58.597Z,13.61
2022-09-18T02:01:31.193Z,13.59
2022-09-18T02:04:08.790Z,13.57
2022-09-18T02:06:47.737Z,13.56
2022-09-18T02:09:20.589Z,13.54
2022-09-18T02:11:55.205Z,13.51
2022-09-18T02:14:38.109Z,13.51
2022-09-18T02:17:24.572Z,13.53
2022-09-18T02:20:00.479Z,13.55
2022-09-18T02:22:31.672Z,13.56
2022-09-18T02:25:05.054Z,13.58
2022-09-18T02:27:36.325Z,13.54
2022-09-18T02:30:08.939Z,13.53
2022-09-18T02:32:39.464Z,13.53
2022-09-18T02:35:10.111Z,13.53
2022-09-18T02:38:04.758Z,13.53
2022-09-18T02:40:54.842Z,13.56
2022-09-18T02:43:48.903Z,13.57
2022-09-18T02:46:23.878Z,13.56
2022-09-18T02:49:11.803Z,13.55
2022-09-18T02:52:08.508Z,13.55
2022-09-18T02:54:43.043Z,13.55
2022-09-18T02:57:17.428Z,13.52
2022-09-18T02:59:54.256Z,13.48
2022-09-18T03:02:24.885Z,13.46
2022-09-18T03:04:56.209Z,13.46
2022-09-18T03:07:27.623Z,13.45
2022-09-18T03:09:59.203Z,13.44
2022-09-18T03:12:28.884Z,13.41
2022-09-18T03:15:00.810Z,13.37
2022-09-18T03:17:32.667Z,13.37
2022-09-18T03:20:02.879Z,13.36
2022-09-18T03:22:32.737Z,13.34
2022-09-18T03:25:03.384Z,13.37
2022-09-18T03:27:35.996Z,13.36
2022-09-18T03:30:07.040Z,13.33
2022-09-18T03:32:37.606Z,13.36
2022-09-18T03:35:09.882Z,13.37
2022-09-18T03:37:39.869Z,13.36
2022-09-18T03:40:11.889Z,13.36
2022-09-18T03:42:44.706Z,13.36
2022-09-18T03:45:16.528Z,13.33
2022-09-18T03:47:48.852Z,13.30
2022-09-18T03:50:17.952Z,13.26
2022-09-18T03:52:51.317Z,13.26
2022-09-18T03:55:22.634Z,13.26
2022-09-18T03:58:00.386Z,13.22
2022-09-18T04:00:34.066Z,13.20
2022-09-18T04:03:05.140Z,13.17
2022-09-18T04:05:53.933Z,13.20
2022-09-18T04:08:34.162Z,13.21
2022-09-18T04:11:13.167Z,13.23
2022-09-18T04:13:43.824Z,13.20
2022-09-18T04:16:15.550Z,13.19
2022-09-18T04:18:50.325Z,13.15
2022-09-18T04:21:19.948Z,13.13
2022-09-18T04:24:11.482Z,13.13
2022-09-18T04:26:41.040Z,13.16
2022-09-18T04:29:13.303Z,13.14
2022-09-18T04:31:43.826Z,13.14
2022-09-18T04:34:18.445Z,13.14
2022-09-18T04:36:48.317Z,13.13
2022-09-18T04:39:18.846Z,13.13
2022-09-18T04:41:49.810Z,13.13
2022-09-18T04:44:21.927Z,13.10
2022-09-18T04:46:53.755Z,13.09
2022-09-18T04:49:23.111Z,13.10
2022-09-18T04:51:53.818Z,13.12
2022-09-18T04:54:23.662Z,13.12
2022-09-18T04:56:54.123Z,13.15
2022-09-18T04:59:25.106Z,13.15
2022-09-18T05:01:57.765Z,13.15
2022-09-18T05:04:27.519Z,13.18
2022-09-18T05:07:06.858Z,13.18
2022-09-18T05:09:38.479Z,13.21
2022-09-18T05:12:09.860Z,13.21
2022-09-18T05:14:40.012Z,13.21
2022-09-18T05:17:09.997Z,13.21
2022-09-18T05:19:42.168Z,13.20
2022-09-18T05:22:15.597Z,13.16
2022-09-18T05:24:46.895Z,13.15
2022-09-18T05:27:16.141Z,13.11
2022-09-18T05:29:45.987Z,13.11
2022-09-18T05:32:20.556Z,13.10
2022-09-18T05:34:50.677Z,13.11
2022-09-18T05:37:20.901Z,13.09
2022-09-18T05:39:52.843Z,13.07
2022-09-18T05:42:23.203Z,13.07
2022-09-18T05:44:52.552Z,13.06
2022-09-18T05:47:23.630Z,12.99
2022-09-18T05:49:53.724Z,12.97
2022-09-18T05:52:25.010Z,12.95
2022-09-18T05:54:55.020Z,12.94
2022-09-18T05:57:24.268Z,12.96
2022-09-18T05:59:55.268Z,12.93
2022-09-18T06:02:24.845Z,12.91
2022-09-18T06:04:55.539Z,12.92
2022-09-18T06:07:26.521Z,12.90
2022-09-18T06:09:55.850Z,12.88
2022-09-18T06:12:25.186Z,12.89
2022-09-18T06:14:55.509Z,12.90
2022-09-18T06:17:27.455Z,12.88
2022-09-18T06:19:59.939Z,12.89
2022-09-18T06:22:31.040Z,12.88
2022-09-18T06:25:01.334Z,12.90
2022-09-18T06:27:33.398Z,12.90
2022-09-18T06:30:03.267Z,12.95
2022-09-18T06:32:35.507Z,12.97
2022-09-18T06:35:06.670Z,12.98
2022-09-18T06:37:38.816Z,13.03
2022-09-18T06:40:16.006Z,13.07
2022-09-18T06:43:03.858Z,13.13
2022-09-18T06:45:40.512Z,13.17
2022-09-18T06:48:10.487Z,13.16
2022-09-18T06:50:40.865Z,13.17
2022-09-18T06:53:12.783Z,13.18
2022-09-18T06:55:45.717Z,13.21
2022-09-18T06:58:17.533Z,13.23
2022-09-18T07:00:47.100Z,13.18
2022-09-18T07:03:19.389Z,13.18
2022-09-18T07:05:57.473Z,13.19
2022-09-18T07:08:30.452Z,13.19
2022-09-18T07:11:02.579Z,13.18
2022-09-18T07:13:32.826Z,13.19
2022-09-18T07:16:03.140Z,13.23
2022-09-18T07:18:33.453Z,13.23
2022-09-18T07:21:03.541Z,13.23
2022-09-18T07:23:37.424Z,13.25
2022-09-18T07:26:11.425Z,13.27
2022-09-18T07:28:41.676Z,13.27
2022-09-18T07:31:13.808Z,13.27
2022-09-18T07:33:45.845Z,13.31
2022-09-18T07:36:18.087Z,13.37
2022-09-18T07:38:51.605Z,13.38
2022-09-18T07:41:23.053Z,13.42
2022-09-18T07:43:54.110Z,13.46
2022-09-18T07:46:24.920Z,13.48
2022-09-18T07:48:57.457Z,13.53
2022-09-18T07:51:28.803Z,13.58
2022-09-18T07:54:01.364Z,13.64
2022-09-18T07:56:46.860Z,13.68
2022-09-18T07:59:15.669Z,13.63
2022-09-18T08:01:45.588Z,13.62
2022-09-18T08:04:18.113Z,13.64
2022-09-18T08:06:55.166Z,13.67
2022-09-18T08:09:44.227Z,13.69
2022-09-18T08:12:15.714Z,13.69
2022-09-18T08:14:56.145Z,13.71
2022-09-18T08:17:47.873Z,13.75
2022-09-18T08:20:20.193Z,13.75
2022-09-18T08:22:54.690Z,13.73
2022-09-18T08:25:27.408Z,13.75
2022-09-18T08:28:01.722Z,13.75
2022-09-18T08:30:38.799Z,13.77
2022-09-18T08:33:11.044Z,13.77
2022-09-18T08:35:42.554Z,13.80
2022-09-18T08:38:25.183Z,13.81
2022-09-18T08:41:25.689Z,13.82
2022-09-18T08:44:07.419Z,13.84
2022-09-18T08:47:05.594Z,13.87
2022-09-18T08:49:47.742Z,13.87
2022-09-18T08:52:28.088Z,13.85
2022-09-18T08:55:13.221Z,13.83
2022-09-18T08:58:10.707Z,13.84
2022-09-18T09:00:51.458Z,13.88
2022-09-18T09:04:04.644Z,13.93
2022-09-18T09:06:54.106Z,13.96
2022-09-18T09:09:42.403Z,14.00
2022-09-18T09:12:28.336Z,14.05
2022-09-18T09:15:21.862Z,14.11
2022-09-18T09:18:19.772Z,14.15
2022-09-18T09:20:54.936Z,14.21
2022-09-18T09:24:02.890Z,14.30
2022-09-18T09:26:43.833Z,14.29
2022-09-18T09:29:29.136Z,14.32
2022-09-18T09:32:23.026Z,14.32
2022-09-18T09:35:29.369Z,14.34
2022-09-18T09:38:27.658Z,14.29
2022-09-18T09:40:57.504Z,14.32
2022-09-18T09:43:57.056Z,14.38
2022-09-18T09:47:03.631Z,14.44
2022-09-18T09:50:10.661Z,14.45
2022-09-18T09:52:41.241Z,14.48
2022-09-18T09:55:26.746Z,14.52
2022-09-18T09:58:31.207Z,14.59
2022-09-18T10:01:14.097Z,14.65
2022-09-18T10:04:13.544Z,14.71
2022-09-18T10:07:14.685Z,14.75
2022-09-18T10:10:09.908Z,14.76
2022-09-18T10:12:56.094Z,14.79
2022-09-18T10:15:43.092Z,14.82
2022-09-18T10:18:29.826Z,14.84
2022-09-18T10:21:10.417Z,14.84
2022-09-18T10:23:41.883Z,14.85
2022-09-18T10:26:26.881Z,14.83
2022-09-18T10:28:56.614Z,14.81
2022-09-18T10:31:27.996Z,14.82
2022-09-18T10:33:59.367Z,14.85
2022-09-18T10:36:39.294Z,14.86
2022-09-18T10:39:31.198Z,14.83
2022-09-18T10:42:04.017Z,14.82
2022-09-18T10:44:41.600Z,14.82
2022-09-18T10:47:19.183Z,14.80
2022-09-18T10:50:08.999Z,14.78
2022-09-18T10:52:43.768Z,14.83
2022-09-18T10:55:27.638Z,14.88
2022-09-18T10:58:14.275Z,14.90
2022-09-18T11:00:53.335Z,14.92
2022-09-18T11:03:47.563Z,14.92
2022-09-18T11:06:24.396Z,14.93
2022-09-18T11:08:56.874Z,14.95
2022-09-18T11:11:35.353Z,14.93
2022-09-18T11:14:36.048Z,14.95
2022-09-18T11:17:07.795Z,14.94
2022-09-18T11:19:39.998Z,14.97
2022-09-18T11:22:35.588Z,14.98
2022-09-18T11:25:20.657Z,15.02
2022-09-18T11:28:00.679Z,15.06
2022-09-18T11:30:35.712Z,15.02
2022-09-18T11:33:23.382Z,15.04
2022-09-18T11:35:58.801Z,15.05
2022-09-18T11:38:27.994Z,15.04
2022-09-18T11:40:59.425Z,15.04
2022-09-18T11:43:33.548Z,15.08
2022-09-18T11:46:11.329Z,15.11
2022-09-18T11:48:52.242Z,15.14
2022-09-18T11:51:44.548Z,15.16
2022-09-18T11:54:32.019Z,15.15
2022-09-18T11:57:03.458Z,15.17
2022-09-18T11:59:51.764Z,15.19
2022-09-18T12:03:13.918Z,15.22
2022-09-18T12:06:14.274Z,15.28
2022-09-18T12:08:56.354Z,15.33
2022-09-18T12:11:48.355Z,15.38
2022-09-18T12:14:33.930Z,15.44
2022-09-18T12:17:29.553Z,15.49
2022-09-18T12:20:06.657Z,15.56
2022-09-18T12:22:42.170Z,15.62
2022-09-18T12:25:16.519Z,15.67
2022-09-18T12:28:31.423Z,15.70
2022-09-18T12:31:17.927Z,15.75
2022-09-18T12:34:13.355Z,15.80
2022-09-18T12:37:14.949Z,15.85
2022-09-18T12:40:15.842Z,15.86
2022-09-18T12:43:05.631Z,15.87
2022-09-18T12:46:21.481Z,15.93
2022-09-18T12:49:01.372Z,15.96
2022-09-18T12:52:00.108Z,16.00
2022-09-18T12:54:34.511Z,16.07
2022-09-18T12:57:41.060Z,16.14
2022-09-18T13:00:14.687Z,16.20
2022-09-18T13:03:15.679Z,16.26
2022-09-18T13:05:54.403Z,16.32
2022-09-18T13:08:51.012Z,16.33
2022-09-18T13:11:40.386Z,16.36
2022-09-18T13:14:27.076Z,16.37
2022-09-18T13:17:10.292Z,16.39
2022-09-18T13:19:45.429Z,16.39
2022-09-18T13:22:17.387Z,16.39
2022-09-18T13:24:50.777Z,16.43
2022-09-18T13:27:21.179Z,16.46
2022-09-18T13:29:56.701Z,16.49
2022-09-18T13:32:37.585Z,16.52
2022-09-18T13:35:23.157Z,16.55
2022-09-18T13:38:19.129Z,16.59
2022-09-18T13:41:04.565Z,16.63
2022-09-18T13:43:39.444Z,16.64
2022-09-18T13:46:09.872Z,16.64
2022-09-18T13:48:45.925Z,16.65
2022-09-18T13:51:21.922Z,16.61
2022-09-18T13:54:18.165Z,16.62
2022-09-18T13:57:12.435Z,16.65
2022-09-18T14:00:05.435Z,16.70
2022-09-18T14:02:40.362Z,16.71
2022-09-18T14:05:37.718Z,16.73
2022-09-18T14:08:24.097Z,16.72
2022-09-18T14:11:17.030Z,16.67
2022-09-18T14:13:43.416Z,16.61
2022-09-18T14:16:27.408Z,16.50
2022-09-18T14:19:10.240Z,16.41
2022-09-18T14:21:43.970Z,16.32
2022-09-18T14:24:38.993Z,16.23
2022-09-18T14:27:49.313Z,16.16
2022-09-18T14:30:28.068Z,16.13
2022-09-18T14:33:07.402Z,16.12
2022-09-18T14:35:57.820Z,16.07
2022-09-18T14:38:36.653Z,16.01
2022-09-18T14:41:25.595Z,15.93
2022-09-18T14:44:01.927Z,15.84
2022-09-18T14:46:31.949Z,15.77
2022-09-18T14:49:03.101Z,15.70
2022-09-18T14:51:44.853Z,15.66
2022-09-18T14:54:16.384Z,15.58
2022-09-18T14:56:46.997Z,15.50
2022-09-18T14:59:17.953Z,15.39
2022-09-18T15:01:48.094Z,15.31
2022-09-18T15:04:21.513Z,15.23
2022-09-18T15:06:54.783Z,15.18
2022-09-18T15:09:30.565Z,15.08
2022-09-18T15:12:03.157Z,15.00
2022-09-18T15:14:44.125Z,14.90
2022-09-18T15:17:21.035Z,14.80
2022-09-18T15:20:12.617Z,14.71
2022-09-18T15:22:42.198Z,14.63
2022-09-18T15:25:17.255Z,14.54
2022-09-18T15:27:46.253Z,14.45
2022-09-18T15:30:24.264Z,14.39
2022-09-18T15:33:04.218Z,14.31
2022-09-18T15:35:37.669Z,14.21
2022-09-18T15:38:12.185Z,14.12
2022-09-18T15:40:43.556Z,14.04
2022-09-18T15:43:42.459Z,13.98
2022-09-18T15:46:14.913Z,13.93
2022-09-18T15:48:48.231Z,13.85
2022-09-18T15:51:27.206Z,13.77
2022-09-18T15:54:20.518Z,13.71
2022-09-18T15:57:01.097Z,13.61
2022-09-18T15:59:40.438Z,13.55
2022-09-18T16:02:31.757Z,13.50
2022-09-18T16:05:10.660Z,13.46
2022-09-18T16:07:43.019Z,13.45
2022-09-18T16:10:38.609Z,13.43
2022-09-18T16:13:17.020Z,13.38
2022-09-18T16:15:48.209Z,13.30
2022-09-18T16:18:25.997Z,13.25
2022-09-18T16:21:01.675Z,13.20
2022-09-18T16:23:48.191Z,13.12
2022-09-18T16:26:26.642Z,13.07
2022-09-18T16:29:04.486Z,13.06
2022-09-18T16:31:36.776Z,13.07
2022-09-18T16:34:19.985Z,13.08
2022-09-18T16:36:49.209Z,13.07
2022-09-18T16:39:21.701Z,13.01
2022-09-18T16:41:52.593Z,12.98
2022-09-18T16:44:22.353Z,12.94
2022-09-18T16:46:57.004Z,12.91
2022-09-18T16:49:28.478Z,12.93
2022-09-18T16:51:58.400Z,12.93
2022-09-18T16:54:28.726Z,12.91
2022-09-18T16:57:08.602Z,12.91
2022-09-18T16:59:39.757Z,12.86
2022-09-18T17:02:10.179Z,12.84
2022-09-18T17:04:40.285Z,12.82
2022-09-18T17:07:10.201Z,12.82
2022-09-18T17:09:40.560Z,12.78
2022-09-18T17:12:11.875Z,12.75
2022-09-18T17:14:41.324Z,12.70
2022-09-18T17:17:13.050Z,12.61
2022-09-18T17:19:43.454Z,12.50
2022-09-18T17:22:12.971Z,12.40
2022-09-18T17:24:43.289Z,12.30
2022-09-18T17:27:13.788Z,12.23
2022-09-18T17:29:43.638Z,12.11
2022-09-18T17:32:13.892Z,11.95
2022-09-18T17:34:43.471Z,11.78
2022-09-18T17:37:12.541Z,11.61
2022-09-18T17:39:42.416Z,11.46
2022-09-18T17:42:12.056Z,11.33
2022-09-18T17:44:42.834Z,11.23
2022-09-18T17:47:13.145Z,11.09
2022-09-18T17:49:43.892Z,10.96
2022-09-18T17:52:13.990Z,10.88
2022-09-18T17:54:43.895Z,10.79
2022-09-18T17:57:13.713Z,10.73
2022-09-18T17:59:44.527Z,10.71
2022-09-18T18:02:14.183Z,10.65
2022-09-18T18:04:44.704Z,10.59
2022-09-18T18:07:15.306Z,10.53
2022-09-18T18:09:46.179Z,10.53
2022-09-18T18:12:16.464Z,10.48
2022-09-18T18:14:47.557Z,10.45
2022-09-18T18:17:19.226Z,10.43
2022-09-18T18:19:50.612Z,10.37
2022-09-18T18:22:20.266Z,10.31
2022-09-18T18:24:50.990Z,10.27
2022-09-18T18:27:21.747Z,10.23
2022-09-18T18:29:52.451Z,10.19
2022-09-18T18:32:22.882Z,10.12
2022-09-18T18:34:55.379Z,10.07
2022-09-18T18:37:27.814Z,10.03
2022-09-18T18:39:57.955Z,10.04
2022-09-18T18:42:28.691Z,10.00
2022-09-18T18:44:58.955Z,9.97
2022-09-18T18:47:29.828Z,9.91
2022-09-18T18:50:00.050Z,9.87
2022-09-18T18:52:31.822Z,9.84
2022-09-18T18:55:01.879Z,9.85
2022-09-18T18:57:32.279Z,9.83
2022-09-18T19:00:02.991Z,9.81
2022-09-18T19:02:33.691Z,9.77
2022-09-18T19:05:05.190Z,9.77
2022-09-18T19:07:36.707Z,9.77
2022-09-18T19:10:07.475Z,9.79
2022-09-18T19:12:39.039Z,9.78
2022-09-18T19:15:09.536Z,9.75
2022-09-18T19:17:44.170Z,9.77
2022-09-18T19:20:15.084Z,9.80
2022-09-18T19:22:55.328Z,9.83
2022-09-18T19:25:29.952Z,9.85
2022-09-18T19:28:00.518Z,9.85
2022-09-18T19:30:32.274Z,9.84
2022-09-18T19:33:02.690Z,9.84
2022-09-18T19:35:37.788Z,9.85
2022-09-18T19:38:08.162Z,9.87
2022-09-18T19:40:38.532Z,9.85
2022-09-18T19:43:12.449Z,9.84
2022-09-18T19:45:46.691Z,9.84
2022-09-18T19:48:20.299Z,9.86
2022-09-18T19:50:51.664Z,9.83
2022-09-18T19:53:22.156Z,9.80
2022-09-18T19:55:51.799Z,9.76
2022-09-18T19:58:22.773Z,9.72
2022-09-18T20:00:53.168Z,9.72
2022-09-18T20:03:23.812Z,9.71
2022-09-18T20:05:55.601Z,9.70
2022-09-18T20:08:27.450Z,9.70
2022-09-18T20:10:56.584Z,9.69
2022-09-18T20:13:26.910Z,9.70
2022-09-18T20:16:07.443Z,9.69
2022-09-18T20:18:39.489Z,9.68
2022-09-18T20:21:11.844Z,9.68
2022-09-18T20:23:42.185Z,9.66
2022-09-18T20:26:17.348Z,9.65
2022-09-18T20:28:47.280Z,9.63
2022-09-18T20:31:17.832Z,9.60
2022-09-18T20:33:51.299Z,9.59
2022-09-18T20:36:21.647Z,9.54
2022-09-18T20:38:52.908Z,9.54
2022-09-18T20:41:24.451Z,9.50
2022-09-18T20:43:53.688Z,9.50
2022-09-18T20:46:24.727Z,9.52
2022-09-18T20:48:55.346Z,9.52
2022-09-18T20:51:32.833Z,9.51
2022-09-18T20:54:08.015Z,9.52
2022-09-18T20:56:43.096Z,9.53
2022-09-18T20:59:16.479Z,9.54
2022-09-18T21:01:46.484Z,9.57
2022-09-18T21:04:17.649Z,9.60
2022-09-18T21:06:56.615Z,9.60
2022-09-18T21:09:28.706Z,9.61
2022-09-18T21:11:58.508Z,9.62
2022-09-18T21:14:28.493Z,9.65
2022-09-18T21:16:58.625Z,9.66
2022-09-18T21:19:29.624Z,9.68
2022-09-18T21:21:59.916Z,9.69
2022-09-18T21:24:31.222Z,9.71
2022-09-18T21:27:01.947Z,9.71
2022-09-18T21:29:33.222Z,9.69
2022-09-18T21:32:03.418Z,9.68
2022-09-18T21:34:34.140Z,9.68
2022-09-18T21:37:09.087Z,9.67
2022-09-18T21:39:38.821Z,9.70
2022-09-18T21:42:09.310Z,9.71
2022-09-18T21:44:39.806Z,9.73
2022-09-18T21:47:10.466Z,9.74
2022-09-18T21:49:41.815Z,9.73
2022-09-18T21:52:11.356Z,9.73
2022-09-18T21:54:41.922Z,9.76
2022-09-18T21:57:12.295Z,9.75
2022-09-18T21:59:41.958Z,9.74
2022-09-18T22:02:13.585Z,9.75
2022-09-18T22:04:45.512Z,9.77
2022-09-18T22:07:17.920Z,9.79
2022-09-18T22:09:47.416Z,9.80
2022-09-18T22:12:17.579Z,9.82
2022-09-18T22:14:48.917Z,9.85
2022-09-18T22:17:18.138Z,9.85
2022-09-18T22:19:48.716Z,9.88
2022-09-18T22:22:19.575Z,9.90
2022-09-18T22:24:49.310Z,9.91
2022-09-18T22:27:19.551Z,9.93
2022-09-18T22:29:49.353Z,9.94
2022-09-18T22:32:19.471Z,9.93
2022-09-18T22:34:50.564Z,9.93
2022-09-18T22:37:20.212Z,9.93
2022-09-18T22:39:51.022Z,9.94
2022-09-18T22:42:20.217Z,9.97
2022-09-18T22:44:49.235Z,10.01
2022-09-18T22:47:19.345Z,10.01
2022-09-18T22:49:48.896Z,10.03
2022-09-18T22:52:18.914Z,10.08
2022-09-18T22:54:48.544Z,10.10
2022-09-18T22:57:20.231Z,10.11
2022-09-18T22:59:53.374Z,10.11
2022-09-18T23:02:23.468Z,10.15
2022-09-18T23:04:54.385Z,10.16
2022-09-18T23:07:26.383Z,10.17
2022-09-18T23:09:57.640Z,10.21
2022-09-18T23:12:26.872Z,10.23
2022-09-18T23:14:56.355Z,10.25
2022-09-18T23:17:26.386Z,10.26
2022-09-18T23:19:57.287Z,10.29
2022-09-18T23:22:28.076Z,10.29
2022-09-18T23:24:57.779Z,10.30
2022-09-18T23:27:28.048Z,10.31
2022-09-18T23:29:58.512Z,10.34
2022-09-18T23:32:29.153Z,10.37
2022-09-18T23:35:00.006Z,10.39
2022-09-18T23:37:29.634Z,10.39
2022-09-18T23:39:59.521Z,10.40
2022-09-18T23:42:29.011Z,10.41
2022-09-18T23:44:58.516Z,10.43
2022-09-18T23:47:28.993Z,10.45
2022-09-18T23:49:59.056Z,10.47
2022-09-18T23:52:29.579Z,10.45
2022-09-18T23:54:59.596Z,10.47
2022-09-18T23:57:30.713Z,10.50
